메인 페이지
METAR-TAF:

METAR-TAF

공항 :

군산공항

군산, 대한민국

위도: 35-55N, 경도: 126-37E, 고도: 10m

현재 날씨관측

예보는 22분 전, 14:56시(UTC)에 발표되었습니다.
4kt
온도 26°C
습도 100%
기압 1006 hPa
시정: 16.1km
고도 8500ft 상공 구름 많음

METAR: RKJK 151456Z AUTO 10004KT 10SM BKN085 26/26 A2970 RMK AO2 RAE34DZB34E35 TSE04TSB15E30 SLP061 P0008 60089 T02600260 403640250 50003 FZRANO $

시각: 00:18 (15:18 UTC)

예보

예보는 1 시간 13분 전, 14:05시(UTC)에 발표되었습니다.
예보 대상 시간: 15일 14시부터 16일 13시까지 (UTC)
서북서12kt
시정: 4800m
고도 2000ft 상공 구름 많음, 적란운.
약한소나기, 시계 내 뇌우
일시적
15일 14시부터 15일 15시까지 (UTC)
여러 방향의 바람 10kt, 순간 최대 풍속 15kt
시정: 8000m
뇌우, 약한비
전환 중
16일 02시부터 16일 04시까지 (UTC)
10kt, 순간 최대 풍속 15kt
시정 10km 이상
고도 3500ft 상공 구름 많음
일시적
16일 06시부터 16일 10시까지 (UTC)
15kt, 순간 최대 풍속 20kt
시정: 4800m
고도 2000ft 상공 구름 많음, 적란운.
고도 5000ft 상공 흐림
뇌우, 약한비

TAF: RKJK 151405Z 1514/1613 29012KT 4800 -SHRA VCTS BKN020CB QNH2965INS TEMPO 1514/1515 VRB10G15KT 8000 -TSRA BECMG 1602/1604 08010G15KT 9999 BKN035 QNH2964INS TEMPO 1606/1610 10015G20KT 4800 -TSRA BKN020CB OVC050 TX36/1606Z TN25/1521Z

4,000개 이상의 공항 관측 자료 및 예보 (METAR 및 TAF 보고).

지도상에서 검색 가능한 기상관측소가 노란 점과 빨간 점으로 표시되어 있습니다.

기상관측소 명을 보려면 표시 위로 마우스를 이동하세요.

날씨 관측과 예보를 보려면 클릭하세요.

지도 변경 : 확대하려면 엑스 표시가 있는 녹색 버튼, 축소하려면 빼기 표시가 있는 녹색 버튼, 다음 페이지의 지도를 보려면 녹색 화살표를 클릭하세요.


METAR-TAF: